sensor_id;sensor_type;location;lat;lon;timestamp;P1;durP1;ratioP1;P2;durP2;ratioP2
36691;SDS011;22678;52.052;4.242;2023-03-13T00:00:29;13.07;;;4.33;;
36691;SDS011;22678;52.052;4.242;2023-03-13T00:02:54;17.60;;;2.63;;
36691;SDS011;22678;52.052;4.242;2023-03-13T00:05:20;15.40;;;2.73;;
36691;SDS011;22678;52.052;4.242;2023-03-13T00:07:45;14.93;;;2.30;;
36691;SDS011;22678;52.052;4.242;2023-03-13T00:10:10;8.07;;;1.80;;
36691;SDS011;22678;52.052;4.242;2023-03-13T00:12:36;12.07;;;3.40;;
36691;SDS011;22678;52.052;4.242;2023-03-13T00:15:01;13.13;;;2.90;;
36691;SDS011;22678;52.052;4.242;2023-03-13T00:17:26;23.60;;;4.27;;
36691;SDS011;22678;52.052;4.242;2023-03-13T00:19:52;12.30;;;2.40;;
36691;SDS011;22678;52.052;4.242;2023-03-13T00:22:17;16.17;;;5.17;;
36691;SDS011;22678;52.052;4.242;2023-03-13T00:24:42;8.83;;;2.67;;
36691;SDS011;22678;52.052;4.242;2023-03-13T00:27:10;16.20;;;4.03;;
36691;SDS011;22678;52.052;4.242;2023-03-13T00:29:35;15.90;;;2.97;;
36691;SDS011;22678;52.052;4.242;2023-03-13T00:32:00;10.40;;;3.57;;
36691;SDS011;22678;52.052;4.242;2023-03-13T00:34:26;16.13;;;4.93;;
36691;SDS011;22678;52.052;4.242;2023-03-13T00:36:52;11.23;;;4.10;;
36691;SDS011;22678;52.052;4.242;2023-03-13T00:39:19;15.30;;;3.47;;
36691;SDS011;22678;52.052;4.242;2023-03-13T00:41:45;15.50;;;4.20;;
36691;SDS011;22678;52.052;4.242;2023-03-13T00:44:10;8.87;;;2.80;;
36691;SDS011;22678;52.052;4.242;2023-03-13T00:46:36;11.63;;;3.77;;
36691;SDS011;22678;52.052;4.242;2023-03-13T00:49:01;10.10;;;4.43;;
36691;SDS011;22678;52.052;4.242;2023-03-13T00:51:28;15.90;;;4.13;;
36691;SDS011;22678;52.052;4.242;2023-03-13T00:53:54;11.33;;;4.60;;
36691;SDS011;22678;52.052;4.242;2023-03-13T00:56:20;13.63;;;4.37;;
36691;SDS011;22678;52.052;4.242;2023-03-13T00:58:47;11.90;;;5.70;;
36691;SDS011;22678;52.052;4.242;2023-03-13T01:01:14;20.33;;;6.73;;
36691;SDS011;22678;52.052;4.242;2023-03-13T01:03:40;18.50;;;6.53;;
36691;SDS011;22678;52.052;4.242;2023-03-13T01:06:09;24.17;;;8.90;;
36691;SDS011;22678;52.052;4.242;2023-03-13T01:08:36;12.70;;;4.73;;
36691;SDS011;22678;52.052;4.242;2023-03-13T01:11:44;8.03;;;5.27;;
36691;SDS011;22678;52.052;4.242;2023-03-13T01:13:54;14.47;;;4.43;;
36691;SDS011;22678;52.052;4.242;2023-03-13T01:16:22;18.35;;;8.15;;
36691;SDS011;22678;52.052;4.242;2023-03-13T01:18:49;10.23;;;4.43;;
36691;SDS011;22678;52.052;4.242;2023-03-13T01:21:16;16.92;;;4.82;;
36691;SDS011;22678;52.052;4.242;2023-03-13T01:23:46;8.17;;;4.37;;
36691;SDS011;22678;52.052;4.242;2023-03-13T01:26:12;14.67;;;5.10;;
36691;SDS011;22678;52.052;4.242;2023-03-13T01:28:38;12.67;;;4.43;;
36691;SDS011;22678;52.052;4.242;2023-03-13T01:31:13;10.33;;;3.97;;
36691;SDS011;22678;52.052;4.242;2023-03-13T01:33:47;16.15;;;5.70;;
36691;SDS011;22678;52.052;4.242;2023-03-13T01:36:14;8.80;;;4.37;;
36691;SDS011;22678;52.052;4.242;2023-03-13T01:38:40;17.03;;;5.20;;
36691;SDS011;22678;52.052;4.242;2023-03-13T01:41:06;17.35;;;4.95;;
36691;SDS011;22678;52.052;4.242;2023-03-13T01:43:33;10.80;;;3.97;;
36691;SDS011;22678;52.052;4.242;2023-03-13T01:49:14;18.73;;;4.80;;
36691;SDS011;22678;52.052;4.242;2023-03-13T01:54:14;17.30;;;5.40;;
36691;SDS011;22678;52.052;4.242;2023-03-13T01:59:32;17.20;;;4.95;;
36691;SDS011;22678;52.052;4.242;2023-03-13T02:02:04;13.55;;;6.65;;
36691;SDS011;22678;52.052;4.242;2023-03-13T02:04:33;14.95;;;4.15;;
36691;SDS011;22678;52.052;4.242;2023-03-13T02:07:04;15.93;;;6.55;;
36691;SDS011;22678;52.052;4.242;2023-03-13T02:09:34;14.80;;;5.18;;
36691;SDS011;22678;52.052;4.242;2023-03-13T02:12:06;16.00;;;6.00;;
36691;SDS011;22678;52.052;4.242;2023-03-13T02:14:36;13.82;;;5.20;;
36691;SDS011;22678;52.052;4.242;2023-03-13T02:17:04;12.10;;;5.43;;
36691;SDS011;22678;52.052;4.242;2023-03-13T02:27:41;8.02;;;4.03;;
36691;SDS011;22678;52.052;4.242;2023-03-13T02:30:09;11.45;;;4.32;;
36691;SDS011;22678;52.052;4.242;2023-03-13T02:32:35;7.85;;;3.20;;
36691;SDS011;22678;52.052;4.242;2023-03-13T02:35:03;9.07;;;3.47;;
36691;SDS011;22678;52.052;4.242;2023-03-13T02:37:32;10.60;;;3.03;;
36691;SDS011;22678;52.052;4.242;2023-03-13T02:39:59;10.70;;;3.35;;
36691;SDS011;22678;52.052;4.242;2023-03-13T02:42:28;12.20;;;2.42;;
36691;SDS011;22678;52.052;4.242;2023-03-13T02:44:55;14.65;;;4.60;;
36691;SDS011;22678;52.052;4.242;2023-03-13T02:47:20;8.57;;;2.13;;
36691;SDS011;22678;52.052;4.242;2023-03-13T02:49:47;5.63;;;2.28;;
36691;SDS011;22678;52.052;4.242;2023-03-13T02:52:28;16.33;;;3.38;;
36691;SDS011;22678;52.052;4.242;2023-03-13T02:54:57;14.57;;;3.00;;
36691;SDS011;22678;52.052;4.242;2023-03-13T02:57:26;10.80;;;2.38;;
36691;SDS011;22678;52.052;4.242;2023-03-13T02:59:51;10.07;;;1.80;;
36691;SDS011;22678;52.052;4.242;2023-03-13T03:02:17;5.75;;;1.45;;
36691;SDS011;22678;52.052;4.242;2023-03-13T03:04:43;15.52;;;2.45;;
36691;SDS011;22678;52.052;4.242;2023-03-13T03:07:08;8.93;;;2.45;;
36691;SDS011;22678;52.052;4.242;2023-03-13T03:09:34;4.57;;;2.03;;
36691;SDS011;22678;52.052;4.242;2023-03-13T03:11:59;7.97;;;2.40;;
36691;SDS011;22678;52.052;4.242;2023-03-13T03:14:24;6.30;;;1.35;;
36691;SDS011;22678;52.052;4.242;2023-03-13T03:16:50;4.63;;;1.83;;
36691;SDS011;22678;52.052;4.242;2023-03-13T03:19:15;11.48;;;2.42;;
36691;SDS011;22678;52.052;4.242;2023-03-13T03:21:40;6.60;;;2.08;;
36691;SDS011;22678;52.052;4.242;2023-03-13T03:24:06;3.55;;;1.33;;
36691;SDS011;22678;52.052;4.242;2023-03-13T03:26:32;4.78;;;2.95;;
36691;SDS011;22678;52.052;4.242;2023-03-13T03:28:57;11.20;;;2.92;;
36691;SDS011;22678;52.052;4.242;2023-03-13T03:31:23;5.97;;;2.63;;
36691;SDS011;22678;52.052;4.242;2023-03-13T03:33:48;14.63;;;2.58;;
36691;SDS011;22678;52.052;4.242;2023-03-13T03:36:15;7.35;;;2.13;;
36691;SDS011;22678;52.052;4.242;2023-03-13T03:38:43;5.38;;;1.77;;
36691;SDS011;22678;52.052;4.242;2023-03-13T03:41:09;5.80;;;2.22;;
36691;SDS011;22678;52.052;4.242;2023-03-13T03:43:35;8.43;;;1.77;;
36691;SDS011;22678;52.052;4.242;2023-03-13T03:46:01;8.15;;;2.75;;
36691;SDS011;22678;52.052;4.242;2023-03-13T03:48:26;8.10;;;4.28;;
36691;SDS011;22678;52.052;4.242;2023-03-13T03:50:52;5.72;;;2.13;;
36691;SDS011;22678;52.052;4.242;2023-03-13T03:53:18;9.13;;;3.45;;
36691;SDS011;22678;52.052;4.242;2023-03-13T03:55:43;10.30;;;3.15;;
36691;SDS011;22678;52.052;4.242;2023-03-13T03:58:09;8.48;;;2.78;;
36691;SDS011;22678;52.052;4.242;2023-03-13T04:00:34;8.25;;;2.15;;
36691;SDS011;22678;52.052;4.242;2023-03-13T04:03:00;6.50;;;1.85;;
36691;SDS011;22678;52.052;4.242;2023-03-13T04:05:25;7.32;;;1.70;;
36691;SDS011;22678;52.052;4.242;2023-03-13T04:07:50;10.48;;;1.77;;
36691;SDS011;22678;52.052;4.242;2023-03-13T04:10:16;4.05;;;2.70;;
36691;SDS011;22678;52.052;4.242;2023-03-13T04:12:41;6.15;;;1.50;;
36691;SDS011;22678;52.052;4.242;2023-03-13T04:15:07;12.35;;;3.75;;
36691;SDS011;22678;52.052;4.242;2023-03-13T04:17:33;7.90;;;3.40;;
36691;SDS011;22678;52.052;4.242;2023-03-13T04:19:58;10.43;;;3.63;;
36691;SDS011;22678;52.052;4.242;2023-03-13T04:22:24;9.43;;;2.40;;
36691;SDS011;22678;52.052;4.242;2023-03-13T04:24:49;9.35;;;3.50;;
36691;SDS011;22678;52.052;4.242;2023-03-13T04:27:15;5.15;;;2.08;;
36691;SDS011;22678;52.052;4.242;2023-03-13T04:29:41;16.63;;;5.32;;
36691;SDS011;22678;52.052;4.242;2023-03-13T04:32:06;6.43;;;3.67;;
36691;SDS011;22678;52.052;4.242;2023-03-13T04:34:32;10.32;;;3.03;;
36691;SDS011;22678;52.052;4.242;2023-03-13T04:36:58;14.07;;;2.72;;
36691;SDS011;22678;52.052;4.242;2023-03-13T04:39:23;7.88;;;2.30;;
36691;SDS011;22678;52.052;4.242;2023-03-13T04:41:52;6.70;;;1.88;;
36691;SDS011;22678;52.052;4.242;2023-03-13T04:44:19;11.35;;;2.90;;
36691;SDS011;22678;52.052;4.242;2023-03-13T04:46:44;11.68;;;3.60;;
36691;SDS011;22678;52.052;4.242;2023-03-13T04:49:10;8.65;;;2.55;;
36691;SDS011;22678;52.052;4.242;2023-03-13T04:51:35;9.27;;;2.90;;
36691;SDS011;22678;52.052;4.242;2023-03-13T04:54:01;12.63;;;2.70;;
36691;SDS011;22678;52.052;4.242;2023-03-13T04:56:26;10.40;;;2.95;;
36691;SDS011;22678;52.052;4.242;2023-03-13T04:58:52;8.88;;;1.63;;
36691;SDS011;22678;52.052;4.242;2023-03-13T05:01:18;15.15;;;4.25;;
36691;SDS011;22678;52.052;4.242;2023-03-13T05:03:43;12.80;;;3.20;;
36691;SDS011;22678;52.052;4.242;2023-03-13T05:06:09;11.68;;;2.80;;
36691;SDS011;22678;52.052;4.242;2023-03-13T05:08:34;11.43;;;3.47;;
36691;SDS011;22678;52.052;4.242;2023-03-13T05:11:00;14.07;;;1.83;;
36691;SDS011;22678;52.052;4.242;2023-03-13T05:13:26;7.55;;;1.58;;
36691;SDS011;22678;52.052;4.242;2023-03-13T05:15:51;9.82;;;2.85;;
36691;SDS011;22678;52.052;4.242;2023-03-13T05:18:17;10.85;;;2.50;;
36691;SDS011;22678;52.052;4.242;2023-03-13T05:20:42;11.05;;;3.05;;
36691;SDS011;22678;52.052;4.242;2023-03-13T05:23:07;12.63;;;3.25;;
36691;SDS011;22678;52.052;4.242;2023-03-13T05:25:33;11.23;;;1.48;;
36691;SDS011;22678;52.052;4.242;2023-03-13T05:27:58;7.55;;;2.80;;
36691;SDS011;22678;52.052;4.242;2023-03-13T05:30:23;8.38;;;2.35;;
36691;SDS011;22678;52.052;4.242;2023-03-13T05:32:49;12.70;;;3.25;;
36691;SDS011;22678;52.052;4.242;2023-03-13T05:35:14;9.60;;;4.93;;
36691;SDS011;22678;52.052;4.242;2023-03-13T05:37:39;6.90;;;2.13;;
36691;SDS011;22678;52.052;4.242;2023-03-13T05:40:05;5.93;;;1.48;;
36691;SDS011;22678;52.052;4.242;2023-03-13T05:42:31;12.02;;;1.70;;
36691;SDS011;22678;52.052;4.242;2023-03-13T05:44:56;4.78;;;1.25;;
36691;SDS011;22678;52.052;4.242;2023-03-13T05:47:21;9.02;;;1.38;;
36691;SDS011;22678;52.052;4.242;2023-03-13T05:49:46;12.52;;;3.20;;
36691;SDS011;22678;52.052;4.242;2023-03-13T05:52:12;11.65;;;2.03;;
36691;SDS011;22678;52.052;4.242;2023-03-13T05:54:37;10.63;;;2.17;;
36691;SDS011;22678;52.052;4.242;2023-03-13T05:57:02;11.15;;;4.85;;
36691;SDS011;22678;52.052;4.242;2023-03-13T05:59:28;9.13;;;2.35;;
36691;SDS011;22678;52.052;4.242;2023-03-13T06:01:53;10.75;;;1.63;;
36691;SDS011;22678;52.052;4.242;2023-03-13T06:04:18;9.98;;;1.73;;
36691;SDS011;22678;52.052;4.242;2023-03-13T06:06:45;14.73;;;2.00;;
36691;SDS011;22678;52.052;4.242;2023-03-13T06:09:11;7.97;;;1.73;;
36691;SDS011;22678;52.052;4.242;2023-03-13T06:11:36;12.25;;;3.70;;
36691;SDS011;22678;52.052;4.242;2023-03-13T06:14:01;9.60;;;2.78;;
36691;SDS011;22678;52.052;4.242;2023-03-13T06:16:27;9.30;;;2.20;;
36691;SDS011;22678;52.052;4.242;2023-03-13T06:18:52;14.73;;;3.50;;
36691;SDS011;22678;52.052;4.242;2023-03-13T06:21:17;8.27;;;1.90;;
36691;SDS011;22678;52.052;4.242;2023-03-13T06:23:43;16.05;;;3.38;;
36691;SDS011;22678;52.052;4.242;2023-03-13T06:26:08;14.38;;;3.03;;
36691;SDS011;22678;52.052;4.242;2023-03-13T06:28:34;12.65;;;3.30;;
36691;SDS011;22678;52.052;4.242;2023-03-13T06:31:00;9.15;;;2.25;;
36691;SDS011;22678;52.052;4.242;2023-03-13T06:33:26;12.40;;;2.10;;
36691;SDS011;22678;52.052;4.242;2023-03-13T06:35:52;13.85;;;4.68;;
36691;SDS011;22678;52.052;4.242;2023-03-13T06:38:17;19.00;;;3.13;;
36691;SDS011;22678;52.052;4.242;2023-03-13T06:40:43;4.85;;;2.47;;
36691;SDS011;22678;52.052;4.242;2023-03-13T06:43:08;7.18;;;1.85;;
36691;SDS011;22678;52.052;4.242;2023-03-13T06:45:34;13.20;;;2.78;;
36691;SDS011;22678;52.052;4.242;2023-03-13T06:48:01;9.90;;;1.77;;
36691;SDS011;22678;52.052;4.242;2023-03-13T06:50:27;7.88;;;2.58;;
36691;SDS011;22678;52.052;4.242;2023-03-13T06:52:52;7.85;;;2.63;;
36691;SDS011;22678;52.052;4.242;2023-03-13T06:55:18;8.30;;;2.85;;
36691;SDS011;22678;52.052;4.242;2023-03-13T06:57:43;6.85;;;2.30;;
36691;SDS011;22678;52.052;4.242;2023-03-13T07:00:12;8.52;;;1.67;;
36691;SDS011;22678;52.052;4.242;2023-03-13T07:02:37;9.80;;;1.88;;
36691;SDS011;22678;52.052;4.242;2023-03-13T07:05:03;5.68;;;1.88;;
36691;SDS011;22678;52.052;4.242;2023-03-13T07:07:30;8.85;;;2.42;;
36691;SDS011;22678;52.052;4.242;2023-03-13T07:09:56;8.70;;;2.92;;
36691;SDS011;22678;52.052;4.242;2023-03-13T07:12:22;14.00;;;2.05;;
36691;SDS011;22678;52.052;4.242;2023-03-13T07:14:47;10.65;;;3.53;;
36691;SDS011;22678;52.052;4.242;2023-03-13T07:17:12;9.50;;;3.25;;
36691;SDS011;22678;52.052;4.242;2023-03-13T07:19:38;16.27;;;3.78;;
36691;SDS011;22678;52.052;4.242;2023-03-13T07:22:03;6.18;;;2.33;;
36691;SDS011;22678;52.052;4.242;2023-03-13T07:24:28;7.97;;;1.38;;
36691;SDS011;22678;52.052;4.242;2023-03-13T07:26:54;9.30;;;2.60;;
36691;SDS011;22678;52.052;4.242;2023-03-13T07:29:19;14.55;;;3.92;;
36691;SDS011;22678;52.052;4.242;2023-03-13T07:31:44;8.98;;;1.98;;
36691;SDS011;22678;52.052;4.242;2023-03-13T07:34:10;7.55;;;2.17;;
36691;SDS011;22678;52.052;4.242;2023-03-13T07:36:35;11.80;;;3.70;;
36691;SDS011;22678;52.052;4.242;2023-03-13T07:39:00;9.82;;;2.15;;
36691;SDS011;22678;52.052;4.242;2023-03-13T07:41:26;8.48;;;1.63;;
36691;SDS011;22678;52.052;4.242;2023-03-13T07:43:51;20.60;;;2.10;;
36691;SDS011;22678;52.052;4.242;2023-03-13T07:46:17;12.70;;;3.15;;
36691;SDS011;22678;52.052;4.242;2023-03-13T07:48:44;4.47;;;1.30;;
36691;SDS011;22678;52.052;4.242;2023-03-13T07:51:14;10.43;;;1.52;;
36691;SDS011;22678;52.052;4.242;2023-03-13T07:53:44;6.18;;;1.30;;
36691;SDS011;22678;52.052;4.242;2023-03-13T07:56:14;7.28;;;1.73;;
36691;SDS011;22678;52.052;4.242;2023-03-13T07:58:42;8.27;;;1.52;;
36691;SDS011;22678;52.052;4.242;2023-03-13T08:01:12;12.48;;;1.63;;
36691;SDS011;22678;52.052;4.242;2023-03-13T08:03:42;5.70;;;1.48;;
36691;SDS011;22678;52.052;4.242;2023-03-13T08:06:10;9.25;;;2.42;;
36691;SDS011;22678;52.052;4.242;2023-03-13T08:08:37;9.20;;;1.27;;
36691;SDS011;22678;52.052;4.242;2023-03-13T08:11:21;12.60;;;1.85;;
36691;SDS011;22678;52.052;4.242;2023-03-13T08:13:51;5.10;;;0.88;;
36691;SDS011;22678;52.052;4.242;2023-03-13T08:16:21;7.93;;;3.65;;
36691;SDS011;22678;52.052;4.242;2023-03-13T08:18:50;6.88;;;0.75;;
36691;SDS011;22678;52.052;4.242;2023-03-13T08:21:18;5.90;;;1.10;;
36691;SDS011;22678;52.052;4.242;2023-03-13T08:23:46;7.95;;;1.75;;
36691;SDS011;22678;52.052;4.242;2023-03-13T08:26:16;12.93;;;1.17;;
36691;SDS011;22678;52.052;4.242;2023-03-13T08:28:43;7.53;;;1.30;;
36691;SDS011;22678;52.052;4.242;2023-03-13T08:31:13;12.88;;;3.92;;
36691;SDS011;22678;52.052;4.242;2023-03-13T08:33:41;10.30;;;2.00;;
36691;SDS011;22678;52.052;4.242;2023-03-13T08:36:11;6.85;;;0.95;;
36691;SDS011;22678;52.052;4.242;2023-03-13T08:38:38;15.30;;;1.20;;
36691;SDS011;22678;52.052;4.242;2023-03-13T08:41:06;7.03;;;1.67;;
36691;SDS011;22678;52.052;4.242;2023-03-13T08:43:32;12.20;;;1.80;;
36691;SDS011;22678;52.052;4.242;2023-03-13T08:45:58;11.07;;;2.05;;
36691;SDS011;22678;52.052;4.242;2023-03-13T08:48:23;11.68;;;1.10;;
36691;SDS011;22678;52.052;4.242;2023-03-13T08:50:59;16.67;;;3.65;;
36691;SDS011;22678;52.052;4.242;2023-03-13T08:53:28;11.27;;;1.77;;
36691;SDS011;22678;52.052;4.242;2023-03-13T08:55:54;10.90;;;2.72;;
36691;SDS011;22678;52.052;4.242;2023-03-13T08:58:19;13.43;;;1.58;;
36691;SDS011;22678;52.052;4.242;2023-03-13T09:00:44;17.90;;;2.65;;
36691;SDS011;22678;52.052;4.242;2023-03-13T09:03:10;14.38;;;2.17;;
36691;SDS011;22678;52.052;4.242;2023-03-13T09:05:38;10.88;;;1.73;;
36691;SDS011;22678;52.052;4.242;2023-03-13T09:08:04;22.80;;;4.57;;
36691;SDS011;22678;52.052;4.242;2023-03-13T09:10:31;15.95;;;2.53;;
36691;SDS011;22678;52.052;4.242;2023-03-13T09:12:57;11.48;;;2.47;;
36691;SDS011;22678;52.052;4.242;2023-03-13T09:15:22;9.48;;;2.00;;
36691;SDS011;22678;52.052;4.242;2023-03-13T09:17:47;15.07;;;2.60;;
36691;SDS011;22678;52.052;4.242;2023-03-13T09:20:13;15.60;;;3.60;;
36691;SDS011;22678;52.052;4.242;2023-03-13T09:22:38;16.98;;;5.53;;
36691;SDS011;22678;52.052;4.242;2023-03-13T09:25:03;12.57;;;2.92;;
36691;SDS011;22678;52.052;4.242;2023-03-13T09:27:29;10.65;;;3.35;;
36691;SDS011;22678;52.052;4.242;2023-03-13T09:29:54;17.27;;;2.72;;
36691;SDS011;22678;52.052;4.242;2023-03-13T09:32:20;5.47;;;0.75;;
36691;SDS011;22678;52.052;4.242;2023-03-13T09:34:45;7.55;;;2.42;;
36691;SDS011;22678;52.052;4.242;2023-03-13T09:37:11;10.18;;;1.25;;
36691;SDS011;22678;52.052;4.242;2023-03-13T09:39:36;11.73;;;1.02;;
36691;SDS011;22678;52.052;4.242;2023-03-13T09:44:58;5.00;;;1.35;;
36691;SDS011;22678;52.052;4.242;2023-03-13T09:47:37;9.18;;;0.77;;
36691;SDS011;22678;52.052;4.242;2023-03-13T09:50:12;6.20;;;0.65;;
36691;SDS011;22678;52.052;4.242;2023-03-13T09:52:42;4.53;;;0.60;;
36691;SDS011;22678;52.052;4.242;2023-03-13T09:55:22;9.55;;;1.65;;
36691;SDS011;22678;52.052;4.242;2023-03-13T10:00:37;5.28;;;0.80;;
36691;SDS011;22678;52.052;4.242;2023-03-13T10:05:35;5.00;;;1.05;;
36691;SDS011;22678;52.052;4.242;2023-03-13T10:08:20;8.32;;;1.05;;
36691;SDS011;22678;52.052;4.242;2023-03-13T10:13:33;8.07;;;1.58;;
36691;SDS011;22678;52.052;4.242;2023-03-13T10:16:26;10.38;;;0.88;;
36691;SDS011;22678;52.052;4.242;2023-03-13T10:18:58;9.75;;;2.38;;
36691;SDS011;22678;52.052;4.242;2023-03-13T10:21:33;7.00;;;2.08;;
36691;SDS011;22678;52.052;4.242;2023-03-13T10:24:02;11.70;;;1.48;;
36691;SDS011;22678;52.052;4.242;2023-03-13T10:26:35;7.75;;;1.45;;
36691;SDS011;22678;52.052;4.242;2023-03-13T10:29:24;10.73;;;1.00;;
36691;SDS011;22678;52.052;4.242;2023-03-13T10:34:32;16.00;;;2.35;;
36691;SDS011;22678;52.052;4.242;2023-03-13T10:37:11;13.18;;;2.10;;
36691;SDS011;22678;52.052;4.242;2023-03-13T10:39:39;23.30;;;3.13;;
36691;SDS011;22678;52.052;4.242;2023-03-13T10:42:08;9.43;;;1.15;;
36691;SDS011;22678;52.052;4.242;2023-03-13T10:44:35;14.43;;;1.02;;
36691;SDS011;22678;52.052;4.242;2023-03-13T10:47:02;12.45;;;2.20;;
36691;SDS011;22678;52.052;4.242;2023-03-13T10:49:29;12.32;;;2.20;;
36691;SDS011;22678;52.052;4.242;2023-03-13T10:52:00;8.18;;;2.15;;
36691;SDS011;22678;52.052;4.242;2023-03-13T10:54:28;13.63;;;3.00;;
36691;SDS011;22678;52.052;4.242;2023-03-13T10:59:51;10.27;;;2.90;;
36691;SDS011;22678;52.052;4.242;2023-03-13T11:04:49;14.57;;;2.35;;
36691;SDS011;22678;52.052;4.242;2023-03-13T11:07:33;15.57;;;1.80;;
36691;SDS011;22678;52.052;4.242;2023-03-13T11:10:18;16.77;;;3.22;;
36691;SDS011;22678;52.052;4.242;2023-03-13T11:12:51;22.23;;;1.75;;
36691;SDS011;22678;52.052;4.242;2023-03-13T11:15:19;9.02;;;2.45;;
36691;SDS011;22678;52.052;4.242;2023-03-13T11:17:56;17.48;;;3.03;;
36691;SDS011;22678;52.052;4.242;2023-03-13T11:20:29;11.65;;;2.28;;
36691;SDS011;22678;52.052;4.242;2023-03-13T11:31:05;18.30;;;2.15;;
36691;SDS011;22678;52.052;4.242;2023-03-13T11:33:37;12.68;;;2.33;;
36691;SDS011;22678;52.052;4.242;2023-03-13T11:36:14;17.73;;;2.42;;
36691;SDS011;22678;52.052;4.242;2023-03-13T11:38:52;11.73;;;2.65;;
36691;SDS011;22678;52.052;4.242;2023-03-13T11:44:29;15.20;;;4.15;;
36691;SDS011;22678;52.052;4.242;2023-03-13T11:48:00;14.70;;;4.00;;
36691;SDS011;22678;52.052;4.242;2023-03-13T11:50:11;25.73;;;3.58;;
36691;SDS011;22678;52.052;4.242;2023-03-13T12:01:15;23.15;;;4.03;;
36691;SDS011;22678;52.052;4.242;2023-03-13T12:06:24;24.55;;;4.07;;
36691;SDS011;22678;52.052;4.242;2023-03-13T12:08:56;24.77;;;2.45;;
36691;SDS011;22678;52.052;4.242;2023-03-13T12:11:35;22.23;;;2.70;;
36691;SDS011;22678;52.052;4.242;2023-03-13T12:20:05;19.40;;;3.55;;
36691;SDS011;22678;52.052;4.242;2023-03-13T12:22:46;14.23;;;3.17;;
36691;SDS011;22678;52.052;4.242;2023-03-13T12:25:24;17.70;;;4.05;;
36691;SDS011;22678;52.052;4.242;2023-03-13T12:27:56;17.92;;;3.20;;
36691;SDS011;22678;52.052;4.242;2023-03-13T12:33:23;23.35;;;4.13;;
36691;SDS011;22678;52.052;4.242;2023-03-13T12:38:38;17.50;;;2.17;;
36691;SDS011;22678;52.052;4.242;2023-03-13T12:43:42;21.90;;;5.07;;
36691;SDS011;22678;52.052;4.242;2023-03-13T12:52:07;20.85;;;5.75;;
36691;SDS011;22678;52.052;4.242;2023-03-13T13:00:14;20.63;;;4.32;;
36691;SDS011;22678;52.052;4.242;2023-03-13T13:02:44;16.45;;;4.13;;
36691;SDS011;22678;52.052;4.242;2023-03-13T13:05:16;10.93;;;3.15;;
36691;SDS011;22678;52.052;4.242;2023-03-13T13:07:51;31.80;;;4.75;;
36691;SDS011;22678;52.052;4.242;2023-03-13T13:10:20;22.90;;;2.75;;
36691;SDS011;22678;52.052;4.242;2023-03-13T13:15:46;12.68;;;1.95;;
36691;SDS011;22678;52.052;4.242;2023-03-13T13:18:26;26.67;;;4.00;;
36691;SDS011;22678;52.052;4.242;2023-03-13T13:23:32;17.95;;;3.83;;
36691;SDS011;22678;52.052;4.242;2023-03-13T13:29:50;23.55;;;4.22;;
36691;SDS011;22678;52.052;4.242;2023-03-13T13:39:55;9.48;;;1.92;;
36691;SDS011;22678;52.052;4.242;2023-03-13T13:43:00;13.20;;;4.95;;
36691;SDS011;22678;52.052;4.242;2023-03-13T13:45:32;17.98;;;4.43;;
36691;SDS011;22678;52.052;4.242;2023-03-13T14:02:00;16.65;;;3.30;;
36691;SDS011;22678;52.052;4.242;2023-03-13T14:04:42;25.27;;;3.88;;
36691;SDS011;22678;52.052;4.242;2023-03-13T14:07:16;18.90;;;2.25;;
36691;SDS011;22678;52.052;4.242;2023-03-13T14:09:48;21.52;;;3.75;;
36691;SDS011;22678;52.052;4.242;2023-03-13T14:15:05;26.77;;;4.88;;
36691;SDS011;22678;52.052;4.242;2023-03-13T14:17:37;30.92;;;3.40;;
36691;SDS011;22678;52.052;4.242;2023-03-13T14:20:04;23.15;;;4.22;;
36691;SDS011;22678;52.052;4.242;2023-03-13T14:22:43;16.30;;;3.90;;
36691;SDS011;22678;52.052;4.242;2023-03-13T14:25:10;18.10;;;4.13;;
36691;SDS011;22678;52.052;4.242;2023-03-13T14:27:41;25.88;;;4.97;;
36691;SDS011;22678;52.052;4.242;2023-03-13T14:30:08;20.70;;;4.32;;
36691;SDS011;22678;52.052;4.242;2023-03-13T14:32:34;18.70;;;2.70;;
36691;SDS011;22678;52.052;4.242;2023-03-13T14:34:59;22.33;;;5.65;;
36691;SDS011;22678;52.052;4.242;2023-03-13T14:40:36;20.95;;;5.07;;
36691;SDS011;22678;52.052;4.242;2023-03-13T14:42:57;20.45;;;2.97;;
36691;SDS011;22678;52.052;4.242;2023-03-13T14:45:27;24.00;;;3.50;;
36691;SDS011;22678;52.052;4.242;2023-03-13T14:47:59;21.42;;;5.28;;
36691;SDS011;22678;52.052;4.242;2023-03-13T14:50:36;24.88;;;3.58;;
36691;SDS011;22678;52.052;4.242;2023-03-13T14:53:02;19.02;;;4.35;;
36691;SDS011;22678;52.052;4.242;2023-03-13T14:55:35;15.38;;;5.55;;
36691;SDS011;22678;52.052;4.242;2023-03-13T14:58:05;25.02;;;4.00;;
36691;SDS011;22678;52.052;4.242;2023-03-13T15:00:50;16.65;;;4.50;;
36691;SDS011;22678;52.052;4.242;2023-03-13T15:08:17;16.23;;;4.05;;
36691;SDS011;22678;52.052;4.242;2023-03-13T15:10:45;26.35;;;5.57;;
36691;SDS011;22678;52.052;4.242;2023-03-13T15:13:13;20.05;;;4.10;;
36691;SDS011;22678;52.052;4.242;2023-03-13T15:15:39;17.08;;;3.90;;
36691;SDS011;22678;52.052;4.242;2023-03-13T15:18:10;26.67;;;4.38;;
36691;SDS011;22678;52.052;4.242;2023-03-13T15:20:42;19.60;;;4.47;;
36691;SDS011;22678;52.052;4.242;2023-03-13T15:23:12;23.08;;;3.83;;
36691;SDS011;22678;52.052;4.242;2023-03-13T15:25:39;23.15;;;4.03;;
36691;SDS011;22678;52.052;4.242;2023-03-13T15:28:17;21.95;;;3.92;;
36691;SDS011;22678;52.052;4.242;2023-03-13T15:30:46;26.02;;;4.65;;
36691;SDS011;22678;52.052;4.242;2023-03-13T15:33:16;20.27;;;4.75;;
36691;SDS011;22678;52.052;4.242;2023-03-13T15:35:45;17.52;;;4.38;;
36691;SDS011;22678;52.052;4.242;2023-03-13T15:38:13;20.10;;;3.28;;
36691;SDS011;22678;52.052;4.242;2023-03-13T15:40:41;24.33;;;4.57;;
36691;SDS011;22678;52.052;4.242;2023-03-13T15:43:07;15.90;;;3.20;;
36691;SDS011;22678;52.052;4.242;2023-03-13T15:45:33;19.00;;;3.40;;
36691;SDS011;22678;52.052;4.242;2023-03-13T15:48:00;23.73;;;4.45;;
36691;SDS011;22678;52.052;4.242;2023-03-13T15:50:26;23.73;;;4.50;;
36691;SDS011;22678;52.052;4.242;2023-03-13T15:52:55;16.67;;;4.22;;
36691;SDS011;22678;52.052;4.242;2023-03-13T15:55:21;25.25;;;4.28;;
36691;SDS011;22678;52.052;4.242;2023-03-13T15:57:49;37.25;;;4.22;;
36691;SDS011;22678;52.052;4.242;2023-03-13T16:00:19;20.92;;;2.95;;
36691;SDS011;22678;52.052;4.242;2023-03-13T16:02:47;36.38;;;4.20;;
36691;SDS011;22678;52.052;4.242;2023-03-13T16:05:13;18.63;;;6.10;;
36691;SDS011;22678;52.052;4.242;2023-03-13T16:07:39;27.13;;;4.90;;
36691;SDS011;22678;52.052;4.242;2023-03-13T16:10:05;30.25;;;6.45;;
36691;SDS011;22678;52.052;4.242;2023-03-13T16:12:39;16.80;;;4.22;;
36691;SDS011;22678;52.052;4.242;2023-03-13T16:15:04;27.08;;;4.95;;
36691;SDS011;22678;52.052;4.242;2023-03-13T16:17:30;18.67;;;4.70;;
36691;SDS011;22678;52.052;4.242;2023-03-13T16:19:56;22.23;;;4.32;;
36691;SDS011;22678;52.052;4.242;2023-03-13T16:22:21;19.80;;;7.20;;
36691;SDS011;22678;52.052;4.242;2023-03-13T16:24:47;16.92;;;3.95;;
36691;SDS011;22678;52.052;4.242;2023-03-13T16:27:13;22.52;;;4.20;;
36691;SDS011;22678;52.052;4.242;2023-03-13T16:29:40;40.53;;;7.72;;
36691;SDS011;22678;52.052;4.242;2023-03-13T16:32:07;22.73;;;3.90;;
36691;SDS011;22678;52.052;4.242;2023-03-13T16:34:39;19.67;;;5.43;;
36691;SDS011;22678;52.052;4.242;2023-03-13T16:37:11;22.55;;;4.80;;
36691;SDS011;22678;52.052;4.242;2023-03-13T16:39:41;27.15;;;6.00;;
36691;SDS011;22678;52.052;4.242;2023-03-13T16:42:07;21.00;;;4.97;;
36691;SDS011;22678;52.052;4.242;2023-03-13T16:44:33;26.42;;;5.20;;
36691;SDS011;22678;52.052;4.242;2023-03-13T16:46:58;21.25;;;4.97;;
36691;SDS011;22678;52.052;4.242;2023-03-13T16:49:24;23.25;;;4.78;;